EZY144 EKCH-EDDN
Flight info
| Callsign | EZY144 |
|---|---|
| Flight time | N/A |
| Altitude | 36000 |
| Route | SALLO M736 BAKDO DCT MAG M736 BARAP/N0424F300 M736 GALMA/N0423F290 M736 TABAT Q244 PIVIR PIVIR1T |
| Aircraft | A320/M-SDE3FGHIRWY/LB1 |
Departure
| Time | 2026-05-01 15:18 |
|---|---|
| Airport | Copenhagen Kastrup Airport (EKCH) |
Arrival
| Time | N/A |
|---|---|
| Airport | Nuremberg Airport (EDDN) |
| Time | Latitude | Longitude | Altitude | Speed | Heading |
|---|---|---|---|---|---|
| 2026-05-01 14:36 | 55.62511 | 12.65040 | 20 ft | 0 kts | 278° |
| 2026-05-01 15:06 | 55.62509 | 12.65061 | 20 ft | 4 kts | 277° |
| 2026-05-01 15:06 | 55.62506 | 12.65107 | 20 ft | 4 kts | 271° |
| 2026-05-01 15:07 | 55.62508 | 12.65155 | 20 ft | 4 kts | 259° |
| 2026-05-01 15:07 | 55.62513 | 12.65188 | 20 ft | 1 kts | 249° |
| 2026-05-01 15:07 | 55.62514 | 12.65194 | 20 ft | 0 kts | 249° |
| 2026-05-01 15:10 | 55.62509 | 12.65180 | 21 ft | 3 kts | 234° |
| 2026-05-01 15:10 | 55.62347 | 12.65194 | 22 ft | 15 kts | 176° |
| 2026-05-01 15:10 | 55.62273 | 12.65109 | 23 ft | 11 kts | 264° |
| 2026-05-01 15:11 | 55.62304 | 12.65000 | 24 ft | 9 kts | 303° |
| 2026-05-01 15:11 | 55.62353 | 12.64825 | 24 ft | 13 kts | 267° |
| 2026-05-01 15:11 | 55.62310 | 12.64644 | 21 ft | 15 kts | 247° |
| 2026-05-01 15:12 | 55.62300 | 12.64602 | 20 ft | 0 kts | 244° |
| 2026-05-01 15:12 | 55.62299 | 12.64600 | 20 ft | 2 kts | 244° |
| 2026-05-01 15:13 | 55.62295 | 12.64586 | 21 ft | 0 kts | 244° |
| 2026-05-01 15:14 | 55.62208 | 12.64354 | 16 ft | 19 kts | 211° |
| 2026-05-01 15:14 | 55.62083 | 12.64252 | 19 ft | 20 kts | 206° |
| 2026-05-01 15:14 | 55.61853 | 12.64040 | 21 ft | 16 kts | 218° |
| 2026-05-01 15:15 | 55.61802 | 12.63966 | 21 ft | 3 kts | 218° |
| 2026-05-01 15:15 | 55.61630 | 12.63950 | 18 ft | 12 kts | 175° |
| 2026-05-01 15:16 | 55.61533 | 12.63922 | 19 ft | 0 kts | 220° |
| 2026-05-01 15:16 | 55.61204 | 12.63416 | 23 ft | 95 kts | 221° |
| 2026-05-01 15:17 | 55.59659 | 12.61023 | 292 ft | 175 kts | 220° |
| 2026-05-01 15:18 | 55.56705 | 12.56484 | 1915 ft | 212 kts | 219° |
| 2026-05-01 15:18 | 55.55369 | 12.55157 | 2370 ft | 232 kts | 204° |
| 2026-05-01 15:19 | 55.50662 | 12.52380 | 4737 ft | 241 kts | 199° |
| 2026-05-01 15:19 | 55.47428 | 12.50521 | 6175 ft | 256 kts | 200° |
| 2026-05-01 15:19 | 55.45647 | 12.49875 | 6859 ft | 268 kts | 181° |
| 2026-05-01 15:20 | 55.42281 | 12.52685 | 8446 ft | 286 kts | 129° |
| 2026-05-01 15:20 | 55.41404 | 12.55858 | 9250 ft | 294 kts | 109° |
| 2026-05-01 15:20 | 55.40817 | 12.59329 | 10098 ft | 298 kts | 108° |
| 2026-05-01 15:21 | 55.40228 | 12.62870 | 10697 ft | 310 kts | 108° |
| 2026-05-01 15:21 | 55.39595 | 12.66640 | 10928 ft | 333 kts | 108° |
| 2026-05-01 15:21 | 55.38917 | 12.70645 | 11379 ft | 347 kts | 108° |
| 2026-05-01 15:21 | 55.38455 | 12.73352 | 11821 ft | 351 kts | 108° |
| 2026-05-01 15:22 | 55.36795 | 12.83027 | 13502 ft | 360 kts | 108° |
| 2026-05-01 15:22 | 55.36063 | 12.87270 | 14203 ft | 365 kts | 108° |
| 2026-05-01 15:22 | 55.35323 | 12.91549 | 14839 ft | 368 kts | 108° |
| 2026-05-01 15:23 | 55.34478 | 12.95815 | 15479 ft | 371 kts | 115° |
| 2026-05-01 15:23 | 55.33649 | 12.98505 | 15910 ft | 372 kts | 124° |
| 2026-05-01 15:23 | 55.32031 | 13.02044 | 16549 ft | 373 kts | 136° |
| 2026-05-01 15:23 | 55.30008 | 13.04916 | 17184 ft | 375 kts | 149° |
| 2026-05-01 15:24 | 55.27707 | 13.07083 | 17812 ft | 377 kts | 154° |
| 2026-05-01 15:24 | 55.25352 | 13.09147 | 18438 ft | 380 kts | 154° |
| 2026-05-01 15:24 | 55.22977 | 13.11233 | 18996 ft | 383 kts | 154° |
| 2026-05-01 15:24 | 55.20617 | 13.13309 | 19536 ft | 386 kts | 154° |
| 2026-05-01 15:25 | 55.18203 | 13.15435 | 20093 ft | 389 kts | 154° |
| 2026-05-01 15:25 | 55.15777 | 13.17573 | 20654 ft | 392 kts | 154° |
| 2026-05-01 15:25 | 55.13334 | 13.19724 | 21196 ft | 395 kts | 154° |
| 2026-05-01 15:25 | 55.10873 | 13.21890 | 21740 ft | 397 kts | 154° |
| 2026-05-01 15:26 | 55.08393 | 13.24065 | 22285 ft | 400 kts | 154° |
| 2026-05-01 15:26 | 55.05888 | 13.26255 | 22751 ft | 406 kts | 153° |
| 2026-05-01 15:26 | 55.03350 | 13.28464 | 23220 ft | 410 kts | 153° |
| 2026-05-01 15:26 | 55.00788 | 13.30688 | 23724 ft | 413 kts | 153° |
| 2026-05-01 15:27 | 54.98207 | 13.32923 | 24170 ft | 416 kts | 153° |
| 2026-05-01 15:27 | 54.95557 | 13.34972 | 24570 ft | 419 kts | 161° |
| 2026-05-01 15:27 | 54.92728 | 13.36201 | 25009 ft | 419 kts | 172° |
| 2026-05-01 15:28 | 54.86897 | 13.35889 | 25798 ft | 423 kts | 193° |
| 2026-05-01 15:28 | 54.84064 | 13.34458 | 26155 ft | 425 kts | 198° |
| 2026-05-01 15:28 | 54.81237 | 13.32898 | 26517 ft | 428 kts | 198° |
| 2026-05-01 15:29 | 54.75565 | 13.29797 | 27244 ft | 432 kts | 197° |
| 2026-05-01 15:29 | 54.72691 | 13.28235 | 27610 ft | 434 kts | 198° |
| 2026-05-01 15:29 | 54.66895 | 13.25081 | 28291 ft | 439 kts | 197° |
| 2026-05-01 15:30 | 54.61041 | 13.21903 | 28988 ft | 443 kts | 197° |
| 2026-05-01 15:31 | 54.49147 | 13.15488 | 30209 ft | 452 kts | 197° |
| 2026-05-01 15:31 | 54.43133 | 13.12287 | 30727 ft | 456 kts | 196° |
| 2026-05-01 15:32 | 54.37028 | 13.09222 | 31211 ft | 458 kts | 195° |
| 2026-05-01 15:32 | 54.30869 | 13.06217 | 31680 ft | 460 kts | 195° |
| 2026-05-01 15:33 | 54.21729 | 13.01689 | 32665 ft | 456 kts | 195° |
| 2026-05-01 15:34 | 54.12637 | 12.97180 | 33652 ft | 452 kts | 195° |